Time;durP1;ratioP1;P1;durP2;ratioP2;P2;SDS_P1;SDS_P2;PMS_P1;PMS_P2;Temp;Humidity;BMP_temperature;BMP_pressure;BME280_temperature;BME280_humidity;BME280_pressure;Samples;Min_cycle;Max_cycle;Signal;HPM_P1;HPM_P2
2024/02/05 00:00:46;;;;;;;;;;;;;;;9.27;100.00;101402.59;5139934;27;20713;-77
2024/02/05 00:03:14;;;;;;;;;;;;;;;9.24;100.00;101407.28;5130712;27;20305;-77
2024/02/05 00:05:40;;;;;;;;;;;;;;;9.24;100.00;101420.72;5133829;27;19923;-77
2024/02/05 00:08:05;;;;;;;;;;;;;;;9.22;100.00;101411.16;5126871;27;19942;-77
2024/02/05 00:10:31;;;;;;;;;;;;;;;9.27;100.00;101413.31;5134100;27;19923;-77
2024/02/05 00:12:56;;;;;;;;;;;;;;;9.27;100.00;101407.97;5130123;27;19926;-77
2024/02/05 00:15:21;;;;;;;;;;;;;;;9.22;100.00;101411.16;5131289;27;19923;-77
2024/02/05 00:17:46;;;;;;;;;;;;;;;9.21;100.00;101413.00;5144630;27;19962;-79
2024/02/05 00:20:12;;;;;;;;;;;;;;;9.18;100.00;101416.03;5133818;27;19923;-78
2024/02/05 00:22:42;;;;;;;;;;;;;;;9.20;100.00;101422.06;5128562;27;19935;-76
2024/02/05 00:25:07;;;;;;;;;;;;;;;9.27;100.00;101408.78;5125548;27;19977;-76
2024/02/05 00:27:32;;;;;;;;;;;;;;;9.25;100.00;101416.19;5134687;27;19919;-78
2024/02/05 00:29:57;;;;;;;;;;;;;;;9.17;100.00;101409.00;5131709;27;19919;-78
2024/02/05 00:32:23;;;;;;;;;;;;;;;9.15;100.00;101412.88;5124760;27;19920;-77
2024/02/05 00:34:49;;;;;;;;;;;;;;;9.16;100.00;101442.25;5129785;27;19923;-78
2024/02/05 00:37:14;;;;;;;;;;;;;;;9.10;100.00;101413.41;5122583;27;19980;-78
2024/02/05 00:39:39;;;;;;;;;;;;;;;9.06;100.00;101412.06;5125571;27;19931;-76
2024/02/05 00:42:04;;;;;;;;;;;;;;;9.04;100.00;101417.63;5126650;27;19919;-78
2024/02/05 00:44:32;;;;;;;;;;;;;;;9.03;100.00;101402.50;5129668;27;19927;-78
2024/02/05 00:46:57;;;;;;;;;;;;;;;9.04;100.00;101420.31;5129854;27;19923;-78
2024/02/05 00:49:23;;;;;;;;;;;;;;;9.02;100.00;101416.09;5130097;27;19926;-78
2024/02/05 00:51:48;;;;;;;;;;;;;;;9.02;100.00;101419.63;5126919;27;19916;-78
2024/02/05 00:54:13;;;;;;;;;;;;;;;9.03;100.00;101415.09;5129104;27;19942;-78
2024/02/05 00:56:38;;;;;;;;;;;;;;;9.00;100.00;101431.56;5124284;27;19919;-77
2024/02/05 00:59:06;;;;;;;;;;;;;;;8.95;100.00;101421.31;5130195;27;19937;-78
2024/02/05 01:01:33;;;;;;;;;;;;;;;8.97;100.00;101413.09;5133370;27;19924;-78
2024/02/05 01:03:58;;;;;;;;;;;;;;;8.91;100.00;101414.63;5126036;27;20306;-78
2024/02/05 01:06:23;;;;;;;;;;;;;;;8.90;100.00;101408.41;5132245;27;19931;-79
2024/02/05 01:08:48;;;;;;;;;;;;;;;8.92;100.00;101417.13;5126240;27;19919;-78
2024/02/05 01:11:15;;;;;;;;;;;;;;;8.90;100.00;101419.16;5130002;27;19928;-78
2024/02/05 01:13:40;;;;;;;;;;;;;;;8.86;100.00;101414.31;5136563;27;20213;-79
2024/02/05 01:16:06;;;;;;;;;;;;;;;8.86;100.00;101411.63;5131353;27;19924;-78
2024/02/05 01:18:31;;;;;;;;;;;;;;;8.83;100.00;101418.16;5136084;27;19920;-78
2024/02/05 01:20:58;;;;;;;;;;;;;;;8.78;100.00;101415.16;5129662;27;20042;-78
2024/02/05 01:23:24;;;;;;;;;;;;;;;8.82;100.00;101410.28;5131779;27;20254;-78
2024/02/05 01:25:49;;;;;;;;;;;;;;;8.79;100.00;101411.47;5132319;27;19919;-78
2024/02/05 01:28:17;;;;;;;;;;;;;;;8.84;100.00;101397.53;5129891;27;20363;-78
2024/02/05 01:30:43;;;;;;;;;;;;;;;8.84;100.00;101422.50;5129663;27;20268;-78
2024/02/05 01:33:09;;;;;;;;;;;;;;;8.79;100.00;101430.28;5128691;27;20406;-78
2024/02/05 01:35:35;;;;;;;;;;;;;;;8.80;100.00;101402.41;5132290;27;20014;-78
2024/02/05 01:38:03;;;;;;;;;;;;;;;8.82;100.00;101408.44;5134920;27;19923;-78
2024/02/05 01:40:28;;;;;;;;;;;;;;;8.84;100.00;101405.59;5129073;27;19920;-78
2024/02/05 01:42:53;;;;;;;;;;;;;;;8.83;100.00;101412.78;5132596;27;20287;-78
2024/02/05 01:45:19;;;;;;;;;;;;;;;8.81;100.00;101420.19;5135216;27;19920;-78
2024/02/05 01:47:44;;;;;;;;;;;;;;;8.80;100.00;101423.88;5123427;27;19950;-78
2024/02/05 01:50:10;;;;;;;;;;;;;;;8.78;100.00;101412.47;5134630;27;19918;-78
2024/02/05 01:52:37;;;;;;;;;;;;;;;8.74;100.00;101409.28;5111354;27;19989;-78
2024/02/05 01:55:05;;;;;;;;;;;;;;;8.76;100.00;101406.44;5122266;28;19969;-78
2024/02/05 01:57:30;;;;;;;;;;;;;;;8.76;100.00;101406.44;5130096;27;19927;-79
2024/02/05 01:59:59;;;;;;;;;;;;;;;8.74;100.00;101395.03;5128870;27;19927;-78
2024/02/05 02:02:25;;;;;;;;;;;;;;;8.75;100.00;101410.97;5136936;27;19954;-78
2024/02/05 02:04:50;;;;;;;;;;;;;;;8.70;100.00;101407.97;5134553;27;19920;-78
2024/02/05 02:07:15;;;;;;;;;;;;;;;8.72;100.00;101410.47;5113881;27;19923;-78
2024/02/05 02:09:41;;;;;;;;;;;;;;;8.72;100.00;101415.84;5130723;27;19943;-78
2024/02/05 02:12:06;;;;;;;;;;;;;;;8.69;100.00;101405.44;5134319;27;19918;-78
2024/02/05 02:14:34;;;;;;;;;;;;;;;8.68;100.00;101409.13;5112588;28;20282;-78
2024/02/05 02:17:00;;;;;;;;;;;;;;;8.62;100.00;101411.50;5128433;27;19923;-78
2024/02/05 02:19:28;;;;;;;;;;;;;;;8.58;100.00;101415.53;5129399;27;20325;-78
2024/02/05 02:21:57;;;;;;;;;;;;;;;8.57;100.00;101418.38;5135856;27;19923;-78
2024/02/05 02:24:23;;;;;;;;;;;;;;;8.59;100.00;101401.09;5139563;27;19912;-78
2024/02/05 02:26:51;;;;;;;;;;;;;;;8.54;100.00;101414.19;5147344;27;19975;-78
2024/02/05 02:29:16;;;;;;;;;;;;;;;8.53;100.00;101419.75;5136249;27;19923;-79
2024/02/05 02:31:47;;;;;;;;;;;;;;;8.52;100.00;101415.38;5130396;27;19923;-78
2024/02/05 02:34:15;;;;;;;;;;;;;;;8.54;100.00;101421.41;5133917;27;19919;-78
2024/02/05 02:36:43;;;;;;;;;;;;;;;8.51;100.00;101419.06;5132432;27;19926;-78
2024/02/05 02:39:12;;;;;;;;;;;;;;;8.44;100.00;101421.56;5113663;28;19966;-78
2024/02/05 02:41:39;;;;;;;;;;;;;;;8.47;100.00;101415.84;5126618;27;20326;-78
2024/02/05 02:44:04;;;;;;;;;;;;;;;8.47;100.00;101413.19;5115808;28;19942;-78
2024/02/05 02:46:30;;;;;;;;;;;;;;;8.39;100.00;101410.50;5140221;27;20359;-77
2024/02/05 02:48:55;;;;;;;;;;;;;;;8.34;100.00;101408.31;5133845;27;20405;-79
2024/02/05 02:51:21;;;;;;;;;;;;;;;8.34;100.00;101411.81;5132447;27;19920;-78
2024/02/05 02:53:46;;;;;;;;;;;;;;;8.31;100.00;101404.09;5128543;27;19927;-78
2024/02/05 02:56:11;;;;;;;;;;;;;;;8.34;100.00;101409.13;5133389;27;20082;-78
2024/02/05 02:58:37;;;;;;;;;;;;;;;8.32;100.00;101423.75;5135649;27;19923;-78
2024/02/05 03:01:02;;;;;;;;;;;;;;;8.28;100.00;101423.25;5130101;27;19999;-78
2024/02/05 03:03:27;;;;;;;;;;;;;;;8.27;100.00;101434.97;5130832;27;19923;-79
2024/02/05 03:05:53;;;;;;;;;;;;;;;8.31;100.00;101422.06;5135976;27;20006;-78
2024/02/05 03:08:18;;;;;;;;;;;;;;;8.26;100.00;101421.72;5137066;27;20018;-78
2024/02/05 03:10:43;;;;;;;;;;;;;;;8.22;100.00;101426.59;5139516;27;19919;-78
2024/02/05 03:13:09;;;;;;;;;;;;;;;8.18;100.00;101426.09;5132689;27;19919;-77
2024/02/05 03:15:35;;;;;;;;;;;;;;;8.14;100.00;101418.53;5135455;27;19975;-77
2024/02/05 03:18:04;;;;;;;;;;;;;;;8.10;100.00;101422.56;5141497;22;19920;-79
2024/02/05 03:20:35;;;;;;;;;;;;;;;8.12;100.00;101425.91;5067519;28;20311;-78
2024/02/05 03:23:01;;;;;;;;;;;;;;;8.04;100.00;101424.91;5065015;28;19931;-77
2024/02/05 03:25:29;;;;;;;;;;;;;;;8.08;100.00;101420.03;5062079;28;19924;-78
2024/02/05 03:27:54;;;;;;;;;;;;;;;8.07;100.00;101417.53;5060640;28;19929;-78
2024/02/05 03:30:29;;;;;;;;;;;;;;;8.04;100.00;101419.53;5074445;22;20050;-78
2024/02/05 03:32:55;;;;;;;;;;;;;;;7.99;100.00;101411.13;5110486;28;19931;-78
2024/02/05 03:35:26;;;;;;;;;;;;;;;7.98;100.00;101425.53;5101962;27;19935;-78
2024/02/05 03:38:12;;;;;;;;;;;;;;;8.00;100.00;101414.69;5108380;27;19920;-78
2024/02/05 03:40:52;;;;;;;;;;;;;;;8.00;100.00;101414.69;5107942;28;20363;-77
2024/02/05 03:43:29;;;;;;;;;;;;;;;7.97;100.00;101423.88;5096862;28;19920;-78
2024/02/05 03:46:03;;;;;;;;;;;;;;;7.95;100.00;101425.06;5108090;28;19978;-78
2024/02/05 03:48:30;;;;;;;;;;;;;;;7.96;100.00;101427.56;5216245;22;19922;-78
2024/02/05 03:50:55;;;;;;;;;;;;;;;7.98;100.00;101422.88;5105552;28;19948;-77
2024/02/05 03:53:20;;;;;;;;;;;;;;;7.97;100.00;101423.88;5116185;22;19963;-78
2024/02/05 03:55:45;;;;;;;;;;;;;;;7.98;100.00;101420.19;5121395;27;19920;-78
2024/02/05 03:58:11;;;;;;;;;;;;;;;7.97;100.00;101434.59;5122125;27;19916;-78
2024/02/05 04:00:36;;;;;;;;;;;;;;;7.97;100.00;101437.28;5130263;27;19964;-78
2024/02/05 04:03:01;;;;;;;;;;;;;;;7.95;100.00;101441.13;5127851;27;19927;-78
2024/02/05 04:05:28;;;;;;;;;;;;;;;7.93;100.00;101443.13;5117180;27;19973;-78
2024/02/05 04:07:53;;;;;;;;;;;;;;;7.96;100.00;101438.28;5120847;27;19928;-78
2024/02/05 04:10:18;;;;;;;;;;;;;;;7.96;100.00;101442.81;5124800;27;20449;-78
2024/02/05 04:12:44;;;;;;;;;;;;;;;8.04;100.00;101434.78;5133302;27;19919;-77
2024/02/05 04:15:09;;;;;;;;;;;;;;;7.97;100.00;101441.81;5123103;27;19919;-77
2024/02/05 04:17:34;;;;;;;;;;;;;;;7.96;100.00;101435.59;5119884;27;19965;-77
2024/02/05 04:19:59;;;;;;;;;;;;;;;7.94;100.00;101437.63;5125960;27;20045;-78
2024/02/05 04:22:25;;;;;;;;;;;;;;;7.95;100.00;101436.59;5126231;27;20013;-77
2024/02/05 04:24:50;;;;;;;;;;;;;;;7.93;100.00;101441.31;5122456;27;19916;-77
2024/02/05 04:27:15;;;;;;;;;;;;;;;7.95;100.00;101431.25;5131721;27;20371;-77
2024/02/05 04:29:41;;;;;;;;;;;;;;;7.91;100.00;101435.28;5118862;27;19966;-77
2024/02/05 04:32:06;;;;;;;;;;;;;;;7.93;100.00;101437.78;5119375;27;19915;-77
2024/02/05 04:34:31;;;;;;;;;;;;;;;7.94;100.00;101443.00;5117165;27;19979;-77
2024/02/05 04:36:56;;;;;;;;;;;;;;;8.00;100.00;101438.81;5123966;27;19924;-77
2024/02/05 04:39:21;;;;;;;;;;;;;;;7.95;100.00;101447.31;5130554;27;19966;-78
2024/02/05 04:41:47;;;;;;;;;;;;;;;7.97;100.00;101439.97;5122171;27;20347;-78
2024/02/05 04:44:13;;;;;;;;;;;;;;;7.93;100.00;101438.63;5131726;27;19923;-78
2024/02/05 04:46:38;;;;;;;;;;;;;;;7.99;100.00;101437.94;5119155;27;19924;-78
2024/02/05 04:49:03;;;;;;;;;;;;;;;7.98;100.00;101420.19;5126922;27;20413;-78
2024/02/05 04:51:29;;;;;;;;;;;;;;;7.93;100.00;101427.06;5126169;27;19919;-78
2024/02/05 04:53:54;;;;;;;;;;;;;;;7.93;100.00;101419.00;5120689;27;19924;-79
2024/02/05 04:56:19;;;;;;;;;;;;;;;8.00;100.00;101428.91;5126739;27;19927;-82
2024/02/05 04:58:44;;;;;;;;;;;;;;;7.97;100.00;101418.50;5112339;27;20018;-78
2024/02/05 05:01:10;;;;;;;;;;;;;;;7.94;100.00;101426.06;5112407;27;20022;-78
2024/02/05 05:03:35;;;;;;;;;;;;;;;7.95;100.00;101414.31;5117775;27;19955;-80
2024/02/05 05:06:03;;;;;;;;;;;;;;;7.93;100.00;101429.72;5114350;27;19951;-85
2024/02/05 05:08:28;;;;;;;;;;;;;;;7.93;100.00;101425.22;5125025;27;20359;-80
2024/02/05 05:10:55;;;;;;;;;;;;;;;7.91;100.00;101412.97;5118361;27;20060;-78
2024/02/05 05:13:20;;;;;;;;;;;;;;;7.91;100.00;101413.81;5111210;27;19924;-78
2024/02/05 05:15:48;;;;;;;;;;;;;;;7.92;100.00;101410.16;5125223;27;20283;-78
2024/02/05 05:18:14;;;;;;;;;;;;;;;7.91;100.00;101418.34;5119555;27;19924;-78
2024/02/05 05:20:39;;;;;;;;;;;;;;;7.96;100.00;101411.47;5122826;27;19920;-78
2024/02/05 05:23:05;;;;;;;;;;;;;;;7.94;100.00;101413.50;5115815;27;19924;-76
2024/02/05 05:25:30;;;;;;;;;;;;;;;7.93;100.00;101416.34;5121106;27;19931;-78
2024/02/05 05:27:55;;;;;;;;;;;;;;;7.91;100.00;101426.38;5125696;27;19923;-78
2024/02/05 05:30:20;;;;;;;;;;;;;;;7.89;100.00;101437.28;5121219;27;19919;-78
2024/02/05 05:33:04;;;;;;;;;;;;;;;7.92;100.00;101436.09;5107902;22;20026;-78
2024/02/05 05:35:42;;;;;;;;;;;;;;;7.90;100.00;101422.88;5069399;28;20388;-78
2024/02/05 05:38:10;;;;;;;;;;;;;;;7.89;100.00;101410.47;5070091;28;19923;-78
2024/02/05 05:40:41;;;;;;;;;;;;;;;7.89;100.00;101419.34;5070200;28;19928;-79
2024/02/05 05:43:18;;;;;;;;;;;;;;;7.90;100.00;101417.50;5069441;28;20323;-78
2024/02/05 05:45:44;;;;;;;;;;;;;;;7.92;100.00;101420.00;5068160;28;20015;-78
2024/02/05 05:48:10;;;;;;;;;;;;;;;7.92;100.00;101426.22;5083132;22;19924;-78
2024/02/05 05:50:37;;;;;;;;;;;;;;;7.95;100.00;101417.00;5103187;28;19946;-78
2024/02/05 05:53:02;;;;;;;;;;;;;;;7.94;100.00;101424.22;5101299;28;19924;-78
2024/02/05 05:55:27;;;;;;;;;;;;;;;7.93;100.00;101419.88;5095343;28;20261;-78
2024/02/05 05:57:53;;;;;;;;;;;;;;;7.93;100.00;101417.19;5099438;28;19927;-78
2024/02/05 06:00:18;;;;;;;;;;;;;;;7.89;100.00;101422.00;5098967;28;19920;-78
2024/02/05 06:02:43;;;;;;;;;;;;;;;7.90;100.00;101417.50;5106081;28;20379;-78
2024/02/05 06:05:08;;;;;;;;;;;;;;;7.94;100.00;101416.19;5103275;28;19919;-78
2024/02/05 06:09:59;;;;;;;;;;;;;;;7.93;100.00;101414.50;5172091;22;19924;-78
2024/02/05 06:12:24;;;;;;;;;;;;;;;7.92;100.00;101426.22;5098636;28;19924;-78
2024/02/05 06:14:49;;;;;;;;;;;;;;;7.86;100.00;101422.34;5103435;28;19919;-78
2024/02/05 06:17:15;;;;;;;;;;;;;;;7.88;100.00;101414.16;5119655;28;20013;-78
2024/02/05 06:19:40;;;;;;;;;;;;;;;7.87;100.00;101413.28;5115918;28;20018;-78
2024/02/05 06:22:07;;;;;;;;;;;;;;;7.83;100.00;101414.66;5124027;27;19927;-78
2024/02/05 06:24:32;;;;;;;;;;;;;;;7.83;100.00;101422.69;5124870;27;19923;-78
2024/02/05 06:27:02;;;;;;;;;;;;;;;7.86;100.00;101413.47;5124191;27;20335;-78
2024/02/05 06:29:29;;;;;;;;;;;;;;;7.86;100.00;101419.66;5123546;27;19934;-78
2024/02/05 06:31:54;;;;;;;;;;;;;;;7.83;100.00;101421.84;5121752;27;20018;-77
2024/02/05 06:34:19;;;;;;;;;;;;;;;7.83;100.00;101421.84;5111825;27;19920;-77
2024/02/05 06:36:56;;;;;;;;;;;;;;;7.82;100.00;101430.88;5120785;22;19931;-76
2024/02/05 06:39:39;;;;;;;;;;;;;;;7.80;100.00;101420.34;5120421;28;20526;-77
2024/02/05 06:42:13;;;;;;;;;;;;;;;7.77;100.00;101419.81;5121324;28;20007;-79
2024/02/05 06:44:38;;;;;;;;;;;;;;;7.78;100.00;101413.44;5103196;28;20397;-79
2024/02/05 06:47:04;;;;;;;;;;;;;;;7.79;100.00;101415.13;5113233;28;19924;-79
2024/02/05 06:49:31;;;;;;;;;;;;;;;7.77;100.00;101414.44;5110322;28;20011;-78
2024/02/05 06:51:59;;;;;;;;;;;;;;;7.77;100.00;101403.72;5112592;28;19928;-79
2024/02/05 06:54:25;;;;;;;;;;;;;;;7.79;100.00;101413.31;5106228;28;20083;-79
2024/02/05 06:57:05;;;;;;;;;;;;;;;7.77;100.00;101398.38;5111473;28;20368;-79
2024/02/05 06:59:36;;;;;;;;;;;;;;;7.70;100.00;101411.59;5109193;28;20312;-77
2024/02/05 07:02:17;;;;;;;;;;;;;;;7.68;100.00;101411.78;5110714;28;19928;-78
2024/02/05 07:04:42;;;;;;;;;;;;;;;7.68;100.00;101417.13;5110276;28;19916;-78
2024/02/05 07:07:19;;;;;;;;;;;;;;;7.69;100.00;101416.13;5110474;28;19989;-78
2024/02/05 07:09:51;;;;;;;;;;;;;;;7.66;100.00;101427.16;5107430;28;20375;-78
2024/02/05 07:12:31;;;;;;;;;;;;;;;7.66;100.00;101427.16;5105698;28;20373;-78
2024/02/05 07:14:56;;;;;;;;;;;;;;;7.70;100.00;101409.75;5107855;28;19923;-78
2024/02/05 07:17:37;;;;;;;;;;;;;;;7.73;100.00;101425.53;5104322;28;19920;-78
2024/02/05 07:20:02;;;;;;;;;;;;;;;7.68;100.00;101414.44;5109274;28;19970;-78
2024/02/05 07:22:37;;;;;;;;;;;;;;;7.69;100.00;101432.19;5108789;28;19924;-78
2024/02/05 07:25:02;;;;;;;;;;;;;;;7.69;100.00;101437.56;5109107;28;19916;-78
2024/02/05 07:27:31;;;;;;;;;;;;;;;7.68;100.00;101425.16;5104755;28;20276;-78
2024/02/05 07:32:37;;;;;;;;;;;;;;;7.66;100.00;101420.97;5202524;22;19947;-78
2024/02/05 07:35:23;;;;;;;;;;;;;;;7.67;100.00;101420.81;5140636;22;21798;-78
2024/02/05 07:38:06;;;;;;;;;;;;;;;7.66;100.00;101429.84;5076610;28;20030;-76
2024/02/05 07:40:31;;;;;;;;;;;;;;;7.68;100.00;101432.34;5067504;28;20549;-78
2024/02/05 07:42:57;;;;;;;;;;;;;;;7.67;100.00;101442.25;5065970;28;19931;-79
2024/02/05 07:45:39;;;;;;;;;;;;;;;7.67;100.00;101439.56;5071262;28;19966;-78
2024/02/05 07:48:23;;;;;;;;;;;;;;;7.67;100.00;101439.56;5286699;22;20060;-79
2024/02/05 07:50:56;;;;;;;;;;;;;;;7.69;100.00;101431.34;5079284;28;19924;-78
2024/02/05 07:53:31;;;;;;;;;;;;;;;7.70;100.00;101435.72;5078902;28;19927;-77
2024/02/05 07:56:09;;;;;;;;;;;;;;;7.68;100.00;101451.97;5047862;28;19931;-77
2024/02/05 07:58:35;;;;;;;;;;;;;;;7.66;100.00;101453.13;5082340;28;20014;-77
2024/02/05 08:01:01;;;;;;;;;;;;;;;7.67;100.00;101438.75;5086489;28;19920;-77
2024/02/05 08:03:35;;;;;;;;;;;;;;;7.72;100.00;101436.38;5091005;28;19997;-77
2024/02/05 08:06:26;;;;;;;;;;;;;;;7.71;100.00;101435.56;5088092;28;20343;-79
2024/02/05 08:08:55;;;;;;;;;;;;;;;7.72;100.00;101439.94;5085521;28;19971;-79
2024/02/05 08:11:26;;;;;;;;;;;;;;;7.74;100.00;101439.75;5075312;28;19966;-78
2024/02/05 08:14:04;;;;;;;;;;;;;;;7.78;100.00;101441.09;5077407;28;19928;-78
2024/02/05 08:16:47;;;;;;;;;;;;;;;7.77;100.00;101441.25;5083127;28;20385;-78
2024/02/05 08:19:34;;;;;;;;;;;;;;;7.76;100.00;101444.97;5079038;28;19931;-78
2024/02/05 08:22:01;;;;;;;;;;;;;;;7.77;100.00;101444.78;5083985;28;20049;-78
2024/02/05 08:24:32;;;;;;;;;;;;;;;7.79;100.00;101448.16;5057894;28;20279;-78
2024/02/05 08:27:06;;;;;;;;;;;;;;;7.76;100.00;101458.38;5086248;28;20369;-78
2024/02/05 08:29:38;;;;;;;;;;;;;;;7.78;100.00;101432.22;5074789;28;19924;-78
2024/02/05 08:32:04;;;;;;;;;;;;;;;7.77;100.00;101447.47;5081966;28;19920;-79
2024/02/05 08:37:04;;;;;;;;;;;;;;;7.78;100.00;101434.88;5154794;22;20229;-78
2024/02/05 08:39:48;;;;;;;;;;;;;;;7.76;100.00;101447.63;5063980;28;19932;-78
2024/02/05 08:42:33;;;;;;;;;;;;;;;7.77;100.00;101422.50;5063956;28;19924;-78
2024/02/05 08:45:07;;;;;;;;;;;;;;;7.83;100.00;101436.09;5067819;28;19924;-78
2024/02/05 08:47:52;;;;;;;;;;;;;;;7.77;100.00;101439.44;5281327;22;19912;-77
2024/02/05 08:50:25;;;;;;;;;;;;;;;7.77;100.00;101431.38;5064161;28;19975;-77
2024/02/05 08:52:51;;;;;;;;;;;;;;;7.82;100.00;101438.94;5098820;22;19977;-77
2024/02/05 08:55:16;;;;;;;;;;;;;;;7.83;100.00;101443.28;5128463;22;19970;-77
2024/02/05 08:58:03;;;;;;;;;;;;;;;7.91;100.00;101434.41;5109841;28;19927;-77
2024/02/05 09:00:34;;;;;;;;;;;;;;;7.88;100.00;101446.31;5105193;28;19955;-78
2024/02/05 09:06:17;;;;;;;;;;;;;;;7.99;100.00;101437.13;5092797;22;19951;-77
2024/02/05 09:08:42;;;;;;;;;;;;;;;8.02;100.00;101452.88;5104587;28;19924;-77
2024/02/05 09:11:07;;;;;;;;;;;;;;;8.02;100.00;101453.72;5111051;28;19920;-77
2024/02/05 09:13:39;;;;;;;;;;;;;;;8.03;100.00;101466.13;5089762;28;20497;-78
2024/02/05 09:16:04;;;;;;;;;;;;;;;7.94;100.00;101459.06;5110424;28;20280;-78
2024/02/05 09:18:45;;;;;;;;;;;;;;;7.92;100.00;101461.09;5086085;28;19926;-77
2024/02/05 09:21:16;;;;;;;;;;;;;;;7.89;100.00;101453.38;5108243;28;19920;-78
2024/02/05 09:23:41;;;;;;;;;;;;;;;7.90;100.00;101457.72;5108505;28;20284;-77
2024/02/05 09:26:22;;;;;;;;;;;;;;;7.94;100.00;101456.41;5105862;28;19920;-78
2024/02/05 09:28:53;;;;;;;;;;;;;;;7.89;100.00;101454.19;5099196;28;19955;-78
2024/02/05 09:31:31;;;;;;;;;;;;;;;7.94;100.00;101453.72;5103995;28;19920;-78
2024/02/05 09:33:56;;;;;;;;;;;;;;;7.95;100.00;101441.97;5093280;28;20363;-78
2024/02/05 09:36:43;;;;;;;;;;;;;;;8.03;100.00;101466.13;5095805;28;20003;-78
2024/02/05 09:39:09;;;;;;;;;;;;;;;8.02;100.00;101460.94;5084462;28;19920;-78
2024/02/05 09:41:53;;;;;;;;;;;;;;;8.00;100.00;101455.72;5101330;28;20402;-78
2024/02/05 09:44:38;;;;;;;;;;;;;;;7.94;100.00;101451.03;5103024;28;20369;-78
2024/02/05 09:47:08;;;;;;;;;;;;;;;7.98;100.00;101446.16;5101088;28;19923;-78
2024/02/05 09:49:34;;;;;;;;;;;;;;;8.14;100.00;101456.06;5085404;28;20291;-78
2024/02/05 09:52:37;;;;;;;;;;;;;;;8.18;100.00;101447.53;5101366;28;20407;-77
2024/02/05 09:55:08;;;;;;;;;;;;;;;8.07;100.00;101449.72;5035679;22;19931;-78
2024/02/05 09:57:33;;;;;;;;;;;;;;;8.03;100.00;101449.22;5098446;28;20248;-78
2024/02/05 10:02:59;;;;;;;;;;;;;;;8.11;100.00;101446.53;5131805;22;19924;-77
2024/02/05 10:05:26;;;;;;;;;;;;;;;8.13;100.00;101443.66;5131850;27;19927;-77
2024/02/05 10:07:58;;;;;;;;;;;;;;;8.18;100.00;101442.19;5102243;28;19930;-77
2024/02/05 10:10:31;;;;;;;;;;;;;;;8.27;100.00;101434.97;5128031;27;20263;-78
2024/02/05 10:13:12;;;;;;;;;;;;;;;8.21;100.00;101435.63;5115610;27;19923;-77
2024/02/05 10:15:39;;;;;;;;;;;;;;;8.19;100.00;101449.22;5124503;27;20295;-77
2024/02/05 10:18:19;;;;;;;;;;;;;;;8.18;100.00;101444.00;5127896;27;19930;-78
2024/02/05 10:20:59;;;;;;;;;;;;;;;8.23;100.00;101441.69;5119169;27;19934;-77
2024/02/05 10:23:25;;;;;;;;;;;;;;;8.27;100.00;101437.66;5124901;27;20009;-77
2024/02/05 10:25:56;;;;;;;;;;;;;;;8.35;100.00;101447.56;5121140;27;20370;-78
2024/02/05 10:28:38;;;;;;;;;;;;;;;8.48;100.00;101428.28;5127167;27;20018;-77
2024/02/05 10:31:16;;;;;;;;;;;;;;;8.43;100.00;101444.03;5123887;27;19919;-78
2024/02/05 10:33:42;;;;;;;;;;;;;;;8.42;100.00;101453.91;5115207;27;20006;-78
2024/02/05 10:36:07;;;;;;;;;;;;;;;8.29;100.00;101438.34;5117871;27;20405;-77
2024/02/05 10:38:36;;;;;;;;;;;;;;;8.33;100.00;101438.81;5119020;27;20356;-77
2024/02/05 10:41:20;;;;;;;;;;;;;;;8.46;100.00;101435.66;5120979;27;20286;-77
2024/02/05 10:43:46;;;;;;;;;;;;;;;8.57;100.00;101438.00;5123206;27;19932;-77
2024/02/05 10:46:11;;;;;;;;;;;;;;;8.48;99.18;101431.81;5128371;27;19943;-77
2024/02/05 10:48:37;;;;;;;;;;;;;;;8.40;99.75;101425.56;5116979;27;19920;-78
2024/02/05 10:51:05;;;;;;;;;;;;;;;8.41;100.00;101432.63;5127399;27;19919;-76
2024/02/05 10:53:41;;;;;;;;;;;;;;;8.57;100.00;101424.59;5105530;27;19920;-77
2024/02/05 11:02:22;;;;;;;;;;;;;;;8.51;100.00;101409.16;5106572;22;19932;-77
2024/02/05 11:05:02;;;;;;;;;;;;;;;8.58;100.00;101420.03;5101917;28;19924;-76
2024/02/05 11:07:33;;;;;;;;;;;;;;;8.71;100.00;101404.28;5103823;28;19920;-76
2024/02/05 11:10:08;;;;;;;;;;;;;;;8.69;99.01;101410.81;5080772;28;19973;-77
2024/02/05 11:12:50;;;;;;;;;;;;;;;8.52;98.85;101394.72;5073924;28;20279;-77
2024/02/05 11:15:22;;;;;;;;;;;;;;;8.57;99.33;101413.00;5080138;28;19931;-77
2024/02/05 11:17:51;;;;;;;;;;;;;;;8.66;98.26;101401.25;5087528;28;19935;-77
2024/02/05 11:20:38;;;;;;;;;;;;;;;9.01;97.00;101409.91;5098134;28;19920;-77
2024/02/05 11:23:04;;;;;;;;;;;;;;;8.73;95.77;101374.56;5096271;28;19931;-77
2024/02/05 11:25:32;;;;;;;;;;;;;;;8.67;96.18;101410.13;5108435;28;20022;-77
2024/02/05 11:30:32;;;;;;;;;;;;;;;8.75;97.24;101397.53;5151754;22;19923;-76
2024/02/05 11:32:58;;;;;;;;;;;;;;;9.05;95.25;101403.19;5120000;27;20291;-77
2024/02/05 11:35:29;;;;;;;;;;;;;;;9.01;95.88;101398.31;5118979;27;19920;-77
2024/02/05 11:38:04;;;;;;;;;;;;;;;8.94;95.27;101396.31;5123720;27;19920;-78
2024/02/05 11:40:33;;;;;;;;;;;;;;;8.96;94.93;101385.41;5116887;27;20420;-78
2024/02/05 11:43:04;;;;;;;;;;;;;;;8.94;95.50;101372.16;5113998;27;19930;-78
2024/02/05 11:45:33;;;;;;;;;;;;;;;9.21;95.23;101383.44;5123178;27;19926;-78
2024/02/05 11:48:09;;;;;;;;;;;;;;;9.13;95.38;101370.06;5097517;22;19925;-77
2024/02/05 11:50:35;;;;;;;;;;;;;;;9.39;93.17;101366.25;5086677;22;19924;-78
2024/02/05 11:53:19;;;;;;;;;;;;;;;9.29;94.27;101361.09;5119056;27;19942;-77
2024/02/05 11:55:59;;;;;;;;;;;;;;;9.70;92.96;101352.78;5132162;27;19972;-77
2024/02/05 11:58:40;;;;;;;;;;;;;;;9.97;91.41;101355.09;5115842;27;20398;-78
2024/02/05 12:01:12;;;;;;;;;;;;;;;10.30;87.56;101365.56;5111630;28;20394;-78
2024/02/05 12:03:38;;;;;;;;;;;;;;;9.94;90.11;101356.31;5111764;28;19919;-77
2024/02/05 12:06:07;;;;;;;;;;;;;;;10.16;88.49;101364.53;5179027;22;20392;-78
2024/02/05 12:08:32;;;;;;;;;;;;;;;9.85;89.63;101352.00;5104898;22;20010;-78
2024/02/05 12:11:03;;;;;;;;;;;;;;;9.89;89.91;101353.31;5094031;28;20019;-78
2024/02/05 12:13:35;;;;;;;;;;;;;;;9.82;89.83;101339.75;5105913;28;20312;-77
2024/02/05 12:16:07;;;;;;;;;;;;;;;9.51;91.23;101340.66;5110708;28;19919;-77
2024/02/05 12:18:35;;;;;;;;;;;;;;;9.48;92.96;101337.47;5092120;28;20023;-78
2024/02/05 12:21:00;;;;;;;;;;;;;;;9.49;92.37;101345.38;5108045;28;19965;-77
2024/02/05 12:23:32;;;;;;;;;;;;;;;9.48;92.93;101332.94;5109345;28;19920;-77
2024/02/05 12:28:51;;;;;;;;;;;;;;;9.53;91.79;101327.03;5037319;28;20396;-77
2024/02/05 12:31:20;;;;;;;;;;;;;;;10.05;89.92;101330.00;5012068;28;19921;-78
2024/02/05 12:34:04;;;;;;;;;;;;;;;10.25;86.32;101335.69;5045367;28;19924;-78
2024/02/05 12:36:35;;;;;;;;;;;;;;;10.14;88.05;101351.25;5041612;28;19924;-78
2024/02/05 12:39:00;;;;;;;;;;;;;;;9.97;89.19;101339.78;5040203;28;20354;-77
2024/02/05 12:41:45;;;;;;;;;;;;;;;9.91;88.34;101327.09;5038788;28;19958;-78
2024/02/05 12:44:10;;;;;;;;;;;;;;;9.81;90.17;101335.41;5042468;28;19979;-77
2024/02/05 12:46:54;;;;;;;;;;;;;;;9.79;90.68;101328.53;5042536;28;20328;-77
2024/02/05 12:49:34;;;;;;;;;;;;;;;9.54;91.95;101332.22;5046773;28;19921;-77
2024/02/05 12:52:00;;;;;;;;;;;;;;;9.67;91.45;101317.38;5035574;28;19932;-76
2024/02/05 12:54:29;;;;;;;;;;;;;;;9.82;91.21;101320.94;5043075;28;19925;-76
2024/02/05 12:56:57;;;;;;;;;;;;;;;9.83;92.00;101332.50;5039849;28;19924;-78
2024/02/05 12:59:25;;;;;;;;;;;;;;;9.79;92.27;101318.59;5085957;28;19931;-77
2024/02/05 13:05:08;;;;;;;;;;;;;;;9.60;91.40;101302.94;5047541;28;19927;-77
2024/02/05 13:07:37;;;;;;;;;;;;;;;9.59;91.35;101312.03;5085898;28;19973;-77
2024/02/05 13:13:03;;;;;;;;;;;;;;;9.78;91.99;101308.03;5147514;22;19923;-78
2024/02/05 13:15:28;;;;;;;;;;;;;;;9.81;92.02;101300.44;5087979;28;19923;-77
2024/02/05 13:17:55;;;;;;;;;;;;;;;9.82;91.31;101293.19;5070275;28;19920;-78
2024/02/05 13:20:40;;;;;;;;;;;;;;;9.99;90.48;101278.59;5088395;28;20006;-78